Adams Field
KLIT : now visible

Airfield :











YOU CAN JOIN US ON...

 
LOGIN :

Register | Disclaimer

   EN    FR    IT 

 









Legend :    VFR   Marginal VFR   IFR   Intensive IFR   Very Intensive IFR
Visi :
Ceiling :
>= 8 km
>= 3000ft
5 to 8 km
1000 to 3000 ft
1500m to 5 km
500 to 1000 ft
800 to 1500m
200 to 500 ft
< 800m
< 200 ft
Symbols :   Thunderstorms  Fog  Heavy snow  Heavy precipitations  Wind > 20 kt






- Airport Elevation : 262 ft
- IATA code : LIT


KLIT - Adams Field

CURRENT METAR :
  • 250753Z 30009KT 10SM BKN030 04/M02 A3015 RMK AO2 SLP212 T00391017 $

EXPIRED METARs :
  • 250653Z 29006KT 10SM OVC030 04/M01 A3015 RMK AO2 SLP212 T00391011 $
  • 250553Z 29007KT 10SM OVC030 04/M01 A3015 RMK AO2 SLP214 T00441011 10044 20044 400720028 51010 $
  • 250543Z 28006KT 10SM OVC030 04/M01 A3016 RMK AO2 T00441011 $

TAF KLIT
Valid from the 25 at 06:00 until the 26 at 06:00 UTC


250539Z 2506/2606 29009KT P6SM OVC030
FM250900 28006KT P6SM SKC
FM251600 25004KT P6SM SCT250
FM260000 14004KT P6SM BKN100



MET'MAP, your aeronautical weather chart ! - Copyright ORBIFLY December 2007 - Disclaimer

ORBIFLY MET'MAP TEAM :

Programming & Development : Alexandra Zaïnal
Concept & original design : Baudouin d'Aumeries
Assistance for programming : Marc-Olivier Méhu
Technical & hardware support : Manuel Goepfert

Contact : metmap@orbifly.com




SOURCES & CREDITS :

   NOAA       Earth
Advisory